Terminal Aerodrome Forecast
Issued by NWS Melbourne, FL

Home | Current Version | Previous Version | Text Only | Print | Product List | Glossary On
Versions: 1 2 3 4 5 6 7 8 9 10 11 12 13 14 15 16 17
000
FTUS42 KMLB 231100
TAFVRB
TAF
KVRB 231127Z 2312/2412 09003KT P6SM SKC
     FM231400 15005KT P6SM FEW005 SCT030 SCT060
     FM231800 10008KT P6SM VCTS SCT030CB BKN100
      TEMPO 2318/2321 3SM TSRA BKN025CB
     FM240200 13003KT P6SM SCT050 BKN200=

USA.gov is the U.S. government's official web portal to all federal, state and local government web resources and services.